Time;durP1;ratioP1;P1;durP2;ratioP2;P2;SDS_P1;SDS_P2;PMS_P1;PMS_P2;Temp;Humidity;BMP_temperature;BMP_pressure;BME280_temperature;BME280_humidity;BME280_pressure;Samples;Min_cycle;Max_cycle;Signal;HPM_P1;HPM_P2
2022/03/12 00:01:06;;;;;;;12.87;5.50;;;2.50;76.40;;;;;;5035401;28;20508;-64
2022/03/12 00:03:32;;;;;;;21.23;8.37;;;2.30;76.40;;;;;;5033669;28;20179;-65
2022/03/12 00:06:00;;;;;;;32.17;12.47;;;2.30;77.00;;;;;;5040220;28;20426;-65
2022/03/12 00:08:41;;;;;;;26.33;9.53;;;2.20;77.70;;;;;;5031293;28;20449;-64
2022/03/12 00:11:11;;;;;;;24.57;9.07;;;2.20;77.80;;;;;;5037164;28;20585;-64
2022/03/12 00:13:37;;;;;;;18.10;7.97;;;2.20;77.80;;;;;;5035415;28;20424;-65
2022/03/12 00:16:04;;;;;;;27.47;10.20;;;2.20;77.90;;;;;;5037725;28;21123;-64
2022/03/12 00:18:30;;;;;;;36.80;13.50;;;2.20;78.30;;;;;;5035175;28;20194;-64
2022/03/12 00:21:02;;;;;;;24.53;11.20;;;2.20;78.60;;;;;;5017905;28;20417;-65
2022/03/12 00:23:30;;;;;;;26.77;11.73;;;2.30;78.90;;;;;;5034271;28;20407;-65
2022/03/12 00:25:57;;;;;;;28.07;11.60;;;2.20;79.30;;;;;;5030796;28;20409;-64
2022/03/12 00:28:22;;;;;;;19.50;7.60;;;2.20;79.10;;;;;;5033887;28;20436;-65
2022/03/12 00:30:49;;;;;;;17.60;7.57;;;2.20;78.80;;;;;;5019505;28;20427;-65
2022/03/12 00:33:17;;;;;;;14.57;7.83;;;2.10;78.50;;;;;;5034650;28;21101;-65
2022/03/12 00:35:47;;;;;;;22.60;9.37;;;2.00;79.20;;;;;;5032728;28;20423;-65
2022/03/12 00:38:14;;;;;;;18.00;7.63;;;2.00;79.80;;;;;;5039713;28;20471;-65
2022/03/12 00:40:40;;;;;;;23.40;8.63;;;2.00;80.40;;;;;;5032433;28;20544;-65
2022/03/12 00:43:07;;;;;;;19.80;7.30;;;2.00;80.80;;;;;;5040273;28;20939;-65
2022/03/12 00:45:32;;;;;;;13.20;6.17;;;2.10;80.20;;;;;;5034169;28;20868;-64
2022/03/12 00:47:58;;;;;;;15.60;7.77;;;2.10;80.00;;;;;;5040546;28;20442;-64
2022/03/12 00:50:24;;;;;;;24.53;9.90;;;2.00;80.10;;;;;;5033019;28;20178;-64
2022/03/12 00:52:50;;;;;;;18.63;7.23;;;2.00;80.70;;;;;;5038278;28;20648;-65
2022/03/12 00:55:15;;;;;;;15.23;6.57;;;1.90;80.70;;;;;;5031909;28;20183;-65
2022/03/12 00:57:41;;;;;;;14.00;7.00;;;2.00;78.30;;;;;;5005966;28;20220;-65
2022/03/12 01:00:14;;;;;;;19.57;7.30;;;2.00;78.20;;;;;;5030456;28;20214;-63
2022/03/12 01:02:39;;;;;;;12.27;6.40;;;2.00;78.20;;;;;;5033024;28;20213;-64
2022/03/12 01:05:05;;;;;;;18.00;6.17;;;2.10;77.50;;;;;;5032527;28;20444;-64
2022/03/12 01:07:31;;;;;;;16.50;7.07;;;2.30;76.60;;;;;;5035132;28;20190;-61
2022/03/12 01:09:57;;;;;;;16.53;5.57;;;2.40;77.80;;;;;;5031927;28;20186;-64
2022/03/12 01:12:22;;;;;;;17.57;5.87;;;2.40;77.60;;;;;;5018465;28;20221;-64
2022/03/12 01:14:48;;;;;;;11.80;5.13;;;2.50;77.00;;;;;;5033098;28;20246;-63
2022/03/12 01:17:15;;;;;;;11.63;5.73;;;2.50;76.70;;;;;;5034963;28;20201;-63
2022/03/12 01:19:40;;;;;;;10.60;6.07;;;2.60;76.60;;;;;;5030881;28;20190;-63
2022/03/12 01:22:06;;;;;;;17.33;5.73;;;2.60;77.10;;;;;;5014595;28;21153;-62
2022/03/12 01:24:34;;;;;;;12.43;6.10;;;2.60;77.80;;;;;;5029373;28;20219;-65
2022/03/12 01:27:00;;;;;;;18.87;6.53;;;2.50;78.20;;;;;;5016699;28;20424;-64
2022/03/12 01:29:26;;;;;;;14.50;6.70;;;2.40;78.30;;;;;;5030649;28;20449;-64
2022/03/12 01:31:52;;;;;;;17.67;6.40;;;2.50;78.60;;;;;;5029673;28;20503;-64
2022/03/12 01:34:18;;;;;;;14.33;5.90;;;2.50;78.30;;;;;;5030431;28;20410;-64
2022/03/12 01:36:44;;;;;;;18.83;5.40;;;2.60;77.70;;;;;;5031255;28;20455;-64
2022/03/12 01:39:09;;;;;;;13.20;6.33;;;2.60;77.80;;;;;;5035749;28;20693;-64
2022/03/12 01:41:41;;;;;;;12.03;5.80;;;2.60;78.40;;;;;;5018089;28;20186;-64
2022/03/12 01:44:07;;;;;;;14.57;6.73;;;2.50;79.10;;;;;;5035440;28;20222;-65
2022/03/12 01:46:44;;;;;;;15.40;7.13;;;2.40;79.30;;;;;;5033796;28;20444;-63
2022/03/12 01:49:11;;;;;;;12.20;6.67;;;2.40;79.90;;;;;;5034925;28;20460;-63
2022/03/12 01:51:39;;;;;;;16.77;6.77;;;2.30;80.10;;;;;;5033960;28;20424;-64
2022/03/12 01:54:05;;;;;;;10.00;5.60;;;2.30;79.90;;;;;;5016740;28;20508;-65
2022/03/12 01:56:31;;;;;;;14.47;5.90;;;2.30;80.70;;;;;;5033122;28;20460;-64
2022/03/12 01:59:01;;;;;;;15.07;6.40;;;2.20;80.60;;;;;;5033982;28;20862;-64
2022/03/12 02:01:29;;;;;;;12.60;6.10;;;2.20;80.50;;;;;;5029315;28;20190;-67
2022/03/12 02:03:56;;;;;;;16.13;5.50;;;2.20;80.60;;;;;;5035345;28;21053;-67
2022/03/12 02:06:24;;;;;;;10.97;5.00;;;2.30;80.80;;;;;;5030883;28;20428;-65
2022/03/12 02:08:58;;;;;;;9.90;5.17;;;2.20;80.80;;;;;;5035601;28;20467;-65
2022/03/12 02:11:28;;;;;;;14.10;6.10;;;2.30;80.60;;;;;;5035779;28;20422;-65
2022/03/12 02:14:11;;;;;;;12.03;5.53;;;2.40;79.70;;;;;;5031250;28;20451;-65
2022/03/12 02:16:38;;;;;;;12.37;5.67;;;2.40;79.90;;;;;;5031803;28;20541;-64
2022/03/12 02:19:04;;;;;;;12.20;5.33;;;2.40;80.00;;;;;;5013180;28;20535;-65
2022/03/12 02:21:44;;;;;;;15.63;5.70;;;2.30;79.90;;;;;;5033552;28;20994;-65
2022/03/12 02:24:12;;;;;;;12.63;6.03;;;2.30;80.10;;;;;;5027723;28;20166;-64
2022/03/12 02:26:42;;;;;;;17.93;6.60;;;2.30;80.40;;;;;;5009845;28;20421;-64
2022/03/12 02:29:12;;;;;;;11.67;5.80;;;2.30;80.40;;;;;;5031025;28;20448;-64
2022/03/12 02:31:45;;;;;;;15.60;6.93;;;2.30;80.60;;;;;;5030818;28;20420;-65
2022/03/12 02:34:11;;;;;;;15.80;7.27;;;2.30;80.60;;;;;;5033052;28;20991;-64
2022/03/12 02:36:38;;;;;;;12.10;5.57;;;2.30;80.60;;;;;;5033351;28;20501;-64
2022/03/12 02:39:05;;;;;;;14.00;6.70;;;2.30;80.60;;;;;;5033206;28;20495;-64
2022/03/12 02:41:31;;;;;;;15.60;6.90;;;2.20;80.50;;;;;;5033033;28;20434;-65
2022/03/12 02:43:58;;;;;;;12.67;6.87;;;2.20;81.20;;;;;;5033390;28;20500;-65
2022/03/12 02:46:27;;;;;;;13.47;6.70;;;2.10;81.50;;;;;;5033997;28;20992;-64
2022/03/12 02:48:53;;;;;;;18.40;7.00;;;2.10;82.20;;;;;;5011969;28;20608;-64
2022/03/12 02:51:23;;;;;;;13.83;6.70;;;2.10;82.50;;;;;;5035545;28;20417;-64
2022/03/12 02:53:55;;;;;;;13.00;6.23;;;2.00;82.50;;;;;;5029756;28;20417;-64
2022/03/12 02:56:21;;;;;;;14.30;7.20;;;2.00;82.20;;;;;;5028040;28;20409;-64
2022/03/12 02:58:47;;;;;;;19.53;6.63;;;2.00;82.30;;;;;;5033799;28;20999;-65
2022/03/12 03:01:14;;;;;;;18.43;7.60;;;2.00;82.10;;;;;;5033993;28;20973;-65
2022/03/12 03:03:44;;;;;;;13.50;6.80;;;2.00;82.20;;;;;;5034046;28;20483;-65
2022/03/12 03:06:13;;;;;;;13.40;5.70;;;1.90;82.50;;;;;;5031044;28;20421;-64
2022/03/12 03:08:39;;;;;;;14.00;6.07;;;1.90;82.80;;;;;;5013409;28;20445;-64
2022/03/12 03:11:16;;;;;;;15.43;6.93;;;1.90;83.20;;;;;;5014860;28;20417;-65
2022/03/12 03:13:44;;;;;;;15.63;6.97;;;2.00;83.40;;;;;;5026315;28;20248;-64
2022/03/12 03:16:21;;;;;;;17.67;7.00;;;1.90;83.40;;;;;;5027777;28;20497;-63
2022/03/12 03:18:51;;;;;;;17.77;6.90;;;1.90;83.60;;;;;;5032666;28;20519;-64
2022/03/12 03:21:19;;;;;;;15.50;6.80;;;1.80;83.50;;;;;;5033616;28;20408;-64
2022/03/12 03:23:45;;;;;;;24.20;6.47;;;1.70;83.80;;;;;;5022267;28;21180;-63
2022/03/12 03:26:11;;;;;;;12.20;7.20;;;1.70;83.40;;;;;;5034772;28;20416;-64
2022/03/12 03:28:37;;;;;;;14.30;6.50;;;1.70;83.40;;;;;;5032851;28;20447;-65
2022/03/12 03:31:06;;;;;;;26.10;7.37;;;1.70;83.40;;;;;;5034273;28;20421;-66
2022/03/12 03:33:32;;;;;;;14.27;6.60;;;1.70;83.10;;;;;;5034470;28;20249;-64
2022/03/12 03:35:57;;;;;;;12.30;6.60;;;1.70;82.80;;;;;;5029757;28;20421;-64
2022/03/12 03:38:23;;;;;;;19.10;6.47;;;1.70;82.90;;;;;;5029784;28;20226;-64
2022/03/12 03:40:49;;;;;;;14.37;6.07;;;1.70;83.30;;;;;;5033946;28;20201;-65
2022/03/12 03:43:19;;;;;;;16.47;6.80;;;1.70;83.40;;;;;;5029341;28;20676;-64
2022/03/12 03:45:48;;;;;;;25.57;8.63;;;1.60;83.70;;;;;;5033017;28;20901;-62
2022/03/12 03:48:16;;;;;;;12.97;6.10;;;1.60;83.60;;;;;;5029900;28;20463;-64
2022/03/12 03:50:45;;;;;;;11.50;5.80;;;1.60;83.40;;;;;;5015472;28;20444;-63
2022/03/12 03:53:13;;;;;;;19.63;7.37;;;1.50;83.00;;;;;;5024683;28;20410;-63
2022/03/12 03:55:39;;;;;;;14.50;5.97;;;1.40;83.00;;;;;;5033438;28;20444;-62
2022/03/12 03:58:05;;;;;;;19.53;8.57;;;1.30;82.90;;;;;;5034465;28;20464;-62
2022/03/12 04:00:31;;;;;;;22.37;7.60;;;1.30;83.70;;;;;;5035448;28;20439;-62
2022/03/12 04:03:04;;;;;;;21.77;7.67;;;1.30;84.20;;;;;;5036703;28;20173;-62
2022/03/12 04:05:35;;;;;;;19.73;7.27;;;1.30;84.00;;;;;;5030615;28;20421;-64
2022/03/12 04:08:02;;;;;;;23.17;7.20;;;1.30;84.30;;;;;;5036659;28;20444;-64
2022/03/12 04:10:28;;;;;;;15.87;7.13;;;1.30;84.20;;;;;;5037340;28;20421;-64
2022/03/12 04:12:56;;;;;;;14.70;6.10;;;1.30;83.60;;;;;;5032331;28;20908;-65
2022/03/12 04:15:21;;;;;;;15.00;6.73;;;1.40;83.60;;;;;;5039233;28;20482;-64
2022/03/12 04:17:51;;;;;;;15.53;6.80;;;1.40;83.90;;;;;;5040921;28;20600;-63
2022/03/12 04:20:18;;;;;;;12.97;6.73;;;1.40;84.10;;;;;;5033431;28;20417;-66
2022/03/12 04:22:48;;;;;;;11.90;6.07;;;1.40;84.20;;;;;;5036694;28;20453;-65
2022/03/12 04:25:15;;;;;;;13.07;6.63;;;1.40;84.50;;;;;;5030669;28;20524;-63
2022/03/12 04:27:44;;;;;;;20.37;7.10;;;1.40;84.80;;;;;;5037355;28;20433;-64
2022/03/12 04:30:15;;;;;;;19.30;7.97;;;1.40;85.30;;;;;;5030232;28;20424;-65
2022/03/12 04:32:42;;;;;;;12.53;6.20;;;1.40;84.90;;;;;;5016902;28;20467;-64
2022/03/12 04:35:09;;;;;;;12.23;6.97;;;1.40;85.40;;;;;;5034442;28;20417;-65
2022/03/12 04:37:36;;;;;;;13.90;7.10;;;1.50;85.60;;;;;;5034906;28;20999;-65
2022/03/12 04:40:11;;;;;;;17.00;6.70;;;1.50;84.90;;;;;;5032443;28;20489;-66
2022/03/12 04:42:38;;;;;;;23.67;6.90;;;1.50;84.40;;;;;;5016863;28;20437;-64
2022/03/12 04:45:08;;;;;;;24.53;7.27;;;1.50;85.70;;;;;;5042763;28;20420;-65
2022/03/12 04:47:34;;;;;;;14.57;7.53;;;1.60;85.30;;;;;;5034003;28;20445;-64
2022/03/12 04:50:02;;;;;;;17.73;7.47;;;1.60;84.60;;;;;;5037880;28;20431;-64
2022/03/12 04:52:29;;;;;;;14.00;6.63;;;1.70;85.30;;;;;;5031427;28;20457;-64
2022/03/12 04:54:56;;;;;;;23.63;7.80;;;1.70;85.10;;;;;;5035780;28;20440;-65
2022/03/12 04:57:22;;;;;;;14.20;7.50;;;1.70;85.20;;;;;;5013767;28;20556;-65
2022/03/12 04:59:48;;;;;;;13.93;6.33;;;1.70;85.70;;;;;;5035732;28;20448;-64
2022/03/12 05:02:14;;;;;;;17.87;7.47;;;1.80;85.40;;;;;;5030929;28;20182;-64
2022/03/12 05:04:40;;;;;;;17.27;7.00;;;1.80;85.30;;;;;;5031122;28;20432;-64
2022/03/12 05:07:08;;;;;;;16.33;7.17;;;1.80;85.80;;;;;;5016321;28;20194;-62
2022/03/12 05:09:33;;;;;;;15.47;7.50;;;1.80;85.40;;;;;;5037070;28;20282;-62
2022/03/12 05:12:01;;;;;;;15.23;7.33;;;1.80;85.40;;;;;;5036465;28;20961;-64
2022/03/12 05:14:26;;;;;;;12.17;6.80;;;1.80;85.80;;;;;;5031321;28;20179;-65
2022/03/12 05:16:52;;;;;;;21.27;7.20;;;1.80;85.60;;;;;;5036864;28;20469;-65
2022/03/12 05:19:20;;;;;;;13.80;6.67;;;1.80;85.20;;;;;;5037116;28;20254;-65
2022/03/12 05:21:46;;;;;;;16.60;7.07;;;1.80;85.20;;;;;;5032790;28;20314;-65
2022/03/12 05:24:13;;;;;;;20.33;8.70;;;1.80;85.60;;;;;;5025365;28;20528;-66
2022/03/12 05:26:39;;;;;;;12.90;6.43;;;1.80;85.80;;;;;;5015002;28;20193;-65
2022/03/12 05:29:04;;;;;;;15.17;6.00;;;1.80;86.00;;;;;;5012449;28;20448;-65
2022/03/12 05:31:30;;;;;;;21.10;8.50;;;1.80;85.80;;;;;;5036039;28;20205;-64
2022/03/12 05:33:55;;;;;;;15.53;6.50;;;1.80;85.70;;;;;;5030634;28;20186;-65
2022/03/12 05:36:21;;;;;;;14.00;6.43;;;1.80;86.00;;;;;;5034207;28;20247;-64
2022/03/12 05:38:47;;;;;;;17.93;7.90;;;1.80;86.50;;;;;;5032606;28;20673;-65
2022/03/12 05:41:13;;;;;;;18.87;6.83;;;1.80;86.60;;;;;;5037197;28;20239;-63
2022/03/12 05:43:44;;;;;;;15.37;6.63;;;1.80;86.20;;;;;;5027962;28;20416;-64
2022/03/12 05:46:11;;;;;;;21.10;7.70;;;1.90;86.30;;;;;;5032913;28;20178;-64
2022/03/12 05:48:37;;;;;;;15.57;7.00;;;1.90;86.60;;;;;;5031717;28;20436;-66
2022/03/12 05:51:04;;;;;;;19.23;7.00;;;1.80;87.50;;;;;;5032160;28;20426;-64
2022/03/12 05:53:30;;;;;;;16.47;6.53;;;1.80;87.30;;;;;;5011688;28;20435;-64
2022/03/12 05:55:56;;;;;;;18.83;7.63;;;1.70;86.50;;;;;;5032283;28;20480;-65
2022/03/12 05:58:26;;;;;;;17.20;7.90;;;1.80;86.80;;;;;;5029464;28;20469;-65
2022/03/12 06:00:54;;;;;;;12.40;6.50;;;1.70;86.70;;;;;;5031383;28;20661;-64
2022/03/12 06:03:24;;;;;;;13.97;7.67;;;1.80;87.00;;;;;;5031867;28;20413;-65
2022/03/12 06:05:58;;;;;;;18.00;8.60;;;1.70;86.40;;;;;;5016338;28;20487;-65
2022/03/12 06:08:24;;;;;;;15.80;7.03;;;1.70;86.80;;;;;;5032582;28;20463;-62
2022/03/12 06:10:52;;;;;;;15.90;7.77;;;1.70;87.60;;;;;;5034790;28;20420;-65
2022/03/12 06:13:18;;;;;;;15.67;7.50;;;1.70;87.70;;;;;;5035267;28;20416;-65
2022/03/12 06:15:55;;;;;;;12.97;6.83;;;1.60;88.60;;;;;;5039627;28;20559;-64
2022/03/12 06:18:24;;;;;;;19.67;8.60;;;1.70;88.50;;;;;;5034560;28;20623;-65
2022/03/12 06:20:49;;;;;;;17.83;7.10;;;1.70;87.80;;;;;;5031323;28;20629;-64
2022/03/12 06:23:15;;;;;;;17.10;7.90;;;1.80;87.00;;;;;;5031418;28;20413;-64
2022/03/12 06:25:41;;;;;;;23.53;8.63;;;1.90;86.60;;;;;;5032182;28;20186;-65
2022/03/12 06:28:07;;;;;;;19.87;8.70;;;2.00;86.70;;;;;;5034454;28;20301;-65
2022/03/12 06:30:33;;;;;;;17.13;8.20;;;2.10;86.60;;;;;;5031965;28;20452;-64
2022/03/12 06:32:59;;;;;;;13.20;7.40;;;2.20;86.40;;;;;;5032258;28;20570;-66
2022/03/12 06:35:26;;;;;;;26.70;9.50;;;2.20;86.40;;;;;;5014304;28;20206;-65
2022/03/12 06:37:52;;;;;;;22.03;8.93;;;2.30;86.30;;;;;;5034353;28;20496;-65
2022/03/12 06:40:18;;;;;;;21.47;7.57;;;2.40;86.10;;;;;;5030371;28;20409;-65
2022/03/12 06:42:47;;;;;;;17.93;7.30;;;2.60;85.40;;;;;;5015409;28;20452;-65
2022/03/12 06:45:15;;;;;;;16.97;7.00;;;2.70;84.50;;;;;;5032154;28;20321;-64
2022/03/12 06:47:42;;;;;;;17.20;7.00;;;2.80;85.00;;;;;;5032800;28;20425;-66
2022/03/12 06:50:11;;;;;;;15.30;6.80;;;2.90;85.10;;;;;;5030270;28;20429;-65
2022/03/12 06:52:37;;;;;;;14.57;7.57;;;3.10;83.80;;;;;;5030843;28;20423;-64
2022/03/12 06:55:04;;;;;;;18.13;7.97;;;3.10;84.20;;;;;;5036022;28;20453;-66
2022/03/12 06:57:29;;;;;;;18.93;8.17;;;3.20;83.10;;;;;;5038594;28;20460;-67
2022/03/12 06:59:55;;;;;;;30.63;8.03;;;3.30;83.00;;;;;;5036195;28;20442;-66
2022/03/12 07:02:21;;;;;;;24.17;8.50;;;3.30;82.00;;;;;;5033865;28;20173;-65
2022/03/12 07:04:46;;;;;;;15.77;7.57;;;3.50;81.90;;;;;;5018812;28;20612;-66
2022/03/12 07:07:12;;;;;;;19.30;8.10;;;3.60;81.80;;;;;;5035786;28;20200;-66
2022/03/12 07:09:38;;;;;;;23.53;9.03;;;3.70;82.20;;;;;;5037330;28;20197;-65
2022/03/12 07:12:04;;;;;;;21.10;7.40;;;3.70;81.40;;;;;;5012145;28;20528;-66
2022/03/12 07:14:30;;;;;;;18.40;7.93;;;3.80;79.70;;;;;;5038205;28;20251;-67
2022/03/12 07:16:56;;;;;;;19.77;8.07;;;3.90;79.50;;;;;;5031186;28;20476;-66
2022/03/12 07:19:22;;;;;;;13.63;6.20;;;4.00;79.30;;;;;;5036004;28;21005;-67
2022/03/12 07:21:49;;;;;;;25.63;9.33;;;4.20;78.70;;;;;;5029213;28;20193;-66
2022/03/12 07:24:15;;;;;;;24.23;8.83;;;4.40;77.30;;;;;;5033590;28;20468;-67
2022/03/12 07:26:41;;;;;;;18.33;7.77;;;4.50;76.50;;;;;;5021377;28;20451;-66
2022/03/12 07:29:07;;;;;;;21.30;7.90;;;4.60;76.50;;;;;;5030402;28;20428;-65
2022/03/12 07:31:37;;;;;;;20.83;8.87;;;4.70;76.00;;;;;;5031408;28;20196;-67
2022/03/12 07:34:02;;;;;;;17.60;8.47;;;4.90;75.10;;;;;;5036256;28;20785;-68
2022/03/12 07:36:28;;;;;;;30.80;9.80;;;5.10;74.10;;;;;;5033250;28;20420;-67
2022/03/12 07:38:54;;;;;;;18.93;7.93;;;5.30;73.70;;;;;;5029827;28;20200;-66
2022/03/12 07:41:20;;;;;;;14.27;6.60;;;5.50;74.30;;;;;;5032024;28;20178;-67
2022/03/12 07:43:45;;;;;;;16.30;8.93;;;6.20;72.20;;;;;;5027910;28;20412;-67
2022/03/12 07:46:11;;;;;;;15.97;6.90;;;6.50;71.60;;;;;;5017045;28;20203;-67
2022/03/12 07:48:37;;;;;;;22.90;8.30;;;6.50;72.00;;;;;;5032048;28;20303;-66
2022/03/12 07:51:02;;;;;;;16.87;7.10;;;6.60;71.30;;;;;;5033405;28;20261;-67
2022/03/12 07:53:28;;;;;;;13.40;7.53;;;7.00;69.10;;;;;;5014160;28;20193;-67
2022/03/12 07:55:54;;;;;;;12.93;7.20;;;7.60;68.40;;;;;;5042343;28;20240;-67
2022/03/12 07:58:20;;;;;;;19.33;8.33;;;8.30;67.10;;;;;;5032836;28;21275;-65
2022/03/12 08:00:46;;;;;;;14.20;7.70;;;8.80;65.70;;;;;;5040202;28;20240;-64
2022/03/12 08:03:12;;;;;;;18.73;8.20;;;9.00;65.00;;;;;;5033506;28;20409;-66
2022/03/12 08:05:38;;;;;;;21.77;8.43;;;8.50;65.60;;;;;;5040375;28;20260;-66
2022/03/12 08:08:04;;;;;;;15.97;8.03;;;9.30;65.80;;;;;;5032226;28;20736;-65
2022/03/12 08:11:24;;;;;;;18.20;7.77;;;9.60;65.20;;;;;;5021686;28;20862;-66
2022/03/12 08:13:17;;;;;;;13.40;6.50;;;9.50;65.70;;;;;;5030568;28;20409;-66
2022/03/12 08:15:43;;;;;;;17.27;6.87;;;10.40;61.60;;;;;;5040563;28;20412;-68
2022/03/12 08:18:09;;;;;;;15.90;7.77;;;10.20;61.00;;;;;;5031916;28;20468;-66
2022/03/12 08:20:34;;;;;;;11.87;6.03;;;10.20;61.40;;;;;;5017668;28;20425;-65
2022/03/12 08:23:00;;;;;;;13.20;7.03;;;10.80;59.00;;;;;;5031525;28;20293;-65
2022/03/12 08:25:27;;;;;;;14.87;6.20;;;11.00;59.50;;;;;;5035115;28;20189;-65
2022/03/12 08:27:53;;;;;;;15.97;7.03;;;11.00;59.40;;;;;;5035225;28;20229;-66
2022/03/12 08:30:19;;;;;;;15.60;7.17;;;11.00;58.80;;;;;;5036412;28;20556;-64
2022/03/12 08:32:45;;;;;;;24.03;7.47;;;10.90;60.00;;;;;;5032688;28;20619;-66
2022/03/12 08:35:12;;;;;;;16.17;7.27;;;11.10;58.80;;;;;;5016276;28;21258;-63
2022/03/12 08:37:39;;;;;;;17.77;6.67;;;11.30;58.60;;;;;;5037718;28;20206;-65
2022/03/12 08:40:06;;;;;;;21.30;5.93;;;11.30;59.00;;;;;;5034475;28;20436;-63
2022/03/12 08:42:33;;;;;;;16.07;7.50;;;11.30;58.90;;;;;;5035982;28;20472;-66
2022/03/12 08:44:58;;;;;;;14.77;6.67;;;11.50;58.50;;;;;;5036334;28;20507;-66
2022/03/12 08:47:24;;;;;;;20.73;7.93;;;11.60;58.20;;;;;;5039595;28;20424;-66
2022/03/12 08:49:50;;;;;;;14.57;8.43;;;11.80;57.70;;;;;;5033551;28;20689;-65
2022/03/12 08:52:16;;;;;;;20.03;7.77;;;11.50;58.40;;;;;;5039232;28;20178;-65
2022/03/12 08:54:41;;;;;;;15.47;7.23;;;11.60;58.20;;;;;;5034927;28;20182;-65
2022/03/12 08:57:07;;;;;;;13.13;5.90;;;11.50;58.00;;;;;;5038120;28;20309;-64
2022/03/12 08:59:33;;;;;;;21.40;7.80;;;11.00;57.90;;;;;;5036437;28;20641;-65
2022/03/12 09:01:59;;;;;;;12.90;6.43;;;10.80;58.40;;;;;;5029131;28;20179;-65
2022/03/12 09:04:24;;;;;;;25.33;7.90;;;11.00;58.30;;;;;;5032376;28;20428;-64
2022/03/12 09:06:50;;;;;;;14.13;7.17;;;10.90;58.20;;;;;;5034320;28;20252;-65
2022/03/12 09:09:16;;;;;;;22.47;7.63;;;10.80;58.20;;;;;;5031951;28;21057;-64
2022/03/12 09:11:41;;;;;;;12.13;6.50;;;10.50;58.60;;;;;;5035402;28;20930;-65
2022/03/12 09:14:07;;;;;;;17.67;8.57;;;10.60;59.00;;;;;;5031806;28;20232;-67
2022/03/12 09:16:36;;;;;;;15.70;7.20;;;10.90;59.10;;;;;;5033773;28;20187;-66
2022/03/12 09:19:02;;;;;;;19.37;7.47;;;11.00;58.60;;;;;;5031761;28;20503;-66
2022/03/12 09:21:28;;;;;;;24.00;9.30;;;11.50;58.20;;;;;;5033899;28;20449;-65
2022/03/12 09:23:53;;;;;;;22.70;9.80;;;11.80;57.70;;;;;;5035206;28;20440;-66
2022/03/12 09:26:21;;;;;;;17.47;8.70;;;11.90;57.70;;;;;;5023025;28;20215;-66
2022/03/12 09:28:48;;;;;;;22.30;8.13;;;12.30;57.70;;;;;;5032706;28;20201;-65
2022/03/12 09:31:14;;;;;;;19.83;8.53;;;12.80;57.00;;;;;;5027352;28;20417;-66
2022/03/12 09:33:40;;;;;;;13.13;7.13;;;13.00;55.80;;;;;;5032999;28;20421;-66
2022/03/12 09:36:06;;;;;;;19.20;8.03;;;13.20;55.80;;;;;;5034238;28;20429;-65
2022/03/12 09:38:32;;;;;;;18.33;8.40;;;12.80;56.60;;;;;;5037301;28;20614;-65
2022/03/12 09:40:58;;;;;;;13.17;7.53;;;12.80;56.70;;;;;;5035198;28;20459;-65
2022/03/12 09:43:23;;;;;;;18.10;8.13;;;12.30;55.80;;;;;;5037841;28;20261;-65
2022/03/12 09:45:49;;;;;;;17.13;7.90;;;12.40;56.50;;;;;;5032244;28;20273;-65
2022/03/12 09:48:15;;;;;;;25.00;7.37;;;12.10;57.00;;;;;;5036366;28;20735;-63
2022/03/12 09:50:40;;;;;;;18.70;7.80;;;12.00;57.80;;;;;;5032840;28;20276;-66
2022/03/12 09:53:06;;;;;;;13.60;8.20;;;11.90;58.00;;;;;;5035156;28;20224;-66
2022/03/12 09:55:34;;;;;;;19.57;7.47;;;11.90;58.30;;;;;;5030777;28;21315;-67
2022/03/12 09:58:00;;;;;;;19.33;8.70;;;12.00;58.00;;;;;;5035493;28;20655;-68
2022/03/12 10:00:26;;;;;;;18.67;8.60;;;12.10;57.80;;;;;;5031585;28;20516;-66
2022/03/12 10:02:52;;;;;;;16.03;7.80;;;11.80;58.40;;;;;;5035959;28;20177;-67
2022/03/12 10:05:17;;;;;;;10.37;5.37;;;11.90;58.70;;;;;;5030433;28;20433;-69
2022/03/12 10:07:43;;;;;;;26.10;7.60;;;11.90;58.90;;;;;;5035151;28;20213;-68
2022/03/12 10:10:15;;;;;;;12.77;6.33;;;11.60;59.70;;;;;;5024161;28;20792;-68
2022/03/12 10:12:41;;;;;;;15.93;6.87;;;11.70;59.60;;;;;;5035039;28;20223;-68
2022/03/12 10:15:12;;;;;;;17.07;5.60;;;11.50;60.60;;;;;;5034586;28;20453;-68
2022/03/12 10:17:38;;;;;;;13.27;6.53;;;11.60;60.50;;;;;;5008868;28;20460;-66
2022/03/12 10:20:05;;;;;;;15.40;7.93;;;11.90;60.50;;;;;;5029594;28;20440;-66
2022/03/12 10:22:32;;;;;;;20.50;6.73;;;12.00;59.80;;;;;;5024678;28;20499;-63
2022/03/12 10:24:58;;;;;;;19.33;7.07;;;11.80;60.80;;;;;;5032993;28;20505;-65
2022/03/12 10:27:23;;;;;;;17.57;7.10;;;11.90;60.90;;;;;;5037605;28;20519;-66
2022/03/12 10:29:49;;;;;;;16.43;7.37;;;12.00;60.20;;;;;;5039232;28;20201;-66
2022/03/12 10:32:30;;;;;;;17.80;6.67;;;12.10;59.60;;;;;;5040087;28;20732;-65
2022/03/12 10:35:01;;;;;;;14.50;6.73;;;12.00;59.90;;;;;;5028366;28;20429;-66
2022/03/12 10:37:32;;;;;;;12.63;5.70;;;12.00;59.90;;;;;;5027722;28;20556;-66
2022/03/12 10:40:06;;;;;;;12.50;5.83;;;12.20;59.30;;;;;;5027777;28;20429;-67
2022/03/12 10:42:33;;;;;;;14.30;6.70;;;12.10;59.50;;;;;;5033322;28;20484;-67
2022/03/12 10:45:09;;;;;;;16.73;8.40;;;12.20;59.30;;;;;;5024615;28;20480;-68
2022/03/12 10:47:43;;;;;;;18.10;6.53;;;12.20;60.00;;;;;;5020504;28;20442;-67
2022/03/12 10:50:17;;;;;;;17.63;6.17;;;12.00;61.00;;;;;;5019152;28;20448;-66
2022/03/12 10:52:46;;;;;;;10.60;5.30;;;12.10;61.50;;;;;;5025515;28;20532;-68
2022/03/12 10:55:33;;;;;;;20.13;7.00;;;12.40;61.60;;;;;;5007988;28;20429;-66
2022/03/12 10:58:17;;;;;;;15.10;5.97;;;12.50;60.00;;;;;;5031057;28;20481;-67
2022/03/12 11:00:54;;;;;;;15.90;6.90;;;12.30;59.90;;;;;;5032263;28;20444;-67
2022/03/12 11:03:22;;;;;;;20.10;5.17;;;12.70;59.60;;;;;;5019541;28;20956;-67
2022/03/12 11:05:49;;;;;;;18.73;6.50;;;12.40;59.90;;;;;;5026470;28;20433;-68
2022/03/12 11:08:19;;;;;;;19.87;6.77;;;12.30;59.70;;;;;;5035793;28;20989;-67
2022/03/12 11:10:50;;;;;;;16.37;6.80;;;12.20;60.00;;;;;;5016739;28;20466;-66
2022/03/12 11:13:36;;;;;;;18.33;6.80;;;12.40;59.70;;;;;;5014511;28;20475;-67
2022/03/12 11:16:14;;;;;;;12.90;6.47;;;12.50;60.00;;;;;;5037476;28;20419;-69
2022/03/12 11:18:52;;;;;;;12.57;6.80;;;12.70;59.80;;;;;;5032493;28;20472;-67
2022/03/12 11:21:37;;;;;;;10.90;5.53;;;12.60;59.20;;;;;;5039883;28;20843;-72
2022/03/12 11:24:44;;;;;;;15.93;7.43;;;12.40;59.90;;;;;;5029180;28;20468;-67
2022/03/12 11:27:13;;;;;;;13.90;6.10;;;12.50;59.80;;;;;;5017296;28;20509;-68
2022/03/12 11:29:39;;;;;;;17.70;7.40;;;12.70;59.50;;;;;;5037627;28;20540;-66
2022/03/12 11:32:09;;;;;;;17.43;6.80;;;12.80;59.10;;;;;;5039525;28;20502;-66
2022/03/12 11:34:40;;;;;;;20.60;6.33;;;12.70;59.30;;;;;;5041610;28;20443;-67
2022/03/12 11:37:25;;;;;;;10.93;5.37;;;12.60;59.30;;;;;;5037659;28;20753;-67
2022/03/12 11:39:52;;;;;;;14.60;5.87;;;12.80;59.50;;;;;;5037023;28;20533;-67
2022/03/12 11:42:26;;;;;;;13.10;5.43;;;13.00;59.10;;;;;;5019837;28;20905;-65
2022/03/12 11:44:54;;;;;;;11.23;5.93;;;13.00;59.90;;;;;;5038878;28;20432;-67
2022/03/12 11:47:33;;;;;;;14.23;6.10;;;13.20;58.90;;;;;;5033961;28;20452;-67
2022/03/12 11:50:01;;;;;;;16.30;6.10;;;13.20;59.50;;;;;;5035435;28;20503;-67
2022/03/12 11:52:28;;;;;;;10.77;5.90;;;13.20;58.90;;;;;;5031301;28;21017;-65
2022/03/12 11:54:56;;;;;;;14.50;6.33;;;12.90;59.10;;;;;;5018594;28;20784;-66
2022/03/12 11:57:28;;;;;;;14.60;6.60;;;13.00;61.90;;;;;;5028499;28;20749;-66
2022/03/12 11:59:55;;;;;;;10.30;5.53;;;13.20;60.90;;;;;;5032356;28;20473;-66
2022/03/12 12:02:23;;;;;;;11.13;5.40;;;13.30;60.00;;;;;;5029872;28;20435;-66
2022/03/12 12:04:52;;;;;;;15.63;5.20;;;13.40;59.70;;;;;;5032374;28;20992;-63
2022/03/12 12:07:19;;;;;;;13.60;6.10;;;13.40;60.00;;;;;;5035212;28;20838;-66
2022/03/12 12:09:45;;;;;;;9.73;4.70;;;13.00;62.40;;;;;;5036697;28;20483;-65
2022/03/12 12:12:12;;;;;;;16.70;5.57;;;13.10;63.80;;;;;;5032913;28;20452;-65
2022/03/12 12:14:39;;;;;;;11.07;4.20;;;13.30;63.10;;;;;;5033439;28;20436;-67
2022/03/12 12:17:04;;;;;;;12.63;6.03;;;13.60;62.70;;;;;;5038018;28;20477;-66
2022/03/12 12:19:30;;;;;;;8.63;4.33;;;13.60;61.60;;;;;;5032926;28;20853;-66
2022/03/12 12:21:56;;;;;;;12.40;5.10;;;13.40;62.90;;;;;;5036105;28;20262;-66
2022/03/12 12:24:27;;;;;;;5.43;3.17;;;13.40;63.80;;;;;;5036452;28;20653;-66
2022/03/12 12:27:03;;;;;;;10.90;3.37;;;13.50;63.60;;;;;;5019354;28;20315;-66
2022/03/12 12:29:41;;;;;;;12.47;5.17;;;13.30;62.00;;;;;;5032895;28;20499;-65
2022/03/12 12:32:12;;;;;;;8.93;4.20;;;13.20;62.30;;;;;;5035818;28;20433;-67
2022/03/12 12:34:59;;;;;;;11.40;5.20;;;13.30;63.10;;;;;;5010427;28;20433;-66
2022/03/12 12:37:48;;;;;;;12.87;4.60;;;13.40;61.90;;;;;;5027989;28;20475;-68
2022/03/12 12:40:36;;;;;;;13.10;4.40;;;13.60;62.00;;;;;;5030634;28;20441;-66
2022/03/12 12:43:09;;;;;;;18.13;5.40;;;13.70;61.80;;;;;;5030524;28;20511;-66
2022/03/12 12:46:05;;;;;;;11.07;3.90;;;13.80;61.40;;;;;;5031289;28;20494;-66
2022/03/12 12:48:30;;;;;;;17.37;5.70;;;13.80;61.50;;;;;;5034441;28;20950;-67